sensor_id;sensor_type;location;lat;lon;timestamp;temperature;humidity
27795;DHT22;15176;50.844;4.412;2022-09-09T00:07:13;20.20;99.90
27795;DHT22;15176;50.844;4.412;2022-09-09T00:15:27;19.70;99.90
27795;DHT22;15176;50.844;4.412;2022-09-09T00:20:49;20.00;99.90
27795;DHT22;15176;50.844;4.412;2022-09-09T00:31:28;19.30;99.90
27795;DHT22;15176;50.844;4.412;2022-09-09T00:33:58;19.10;99.90
27795;DHT22;15176;50.844;4.412;2022-09-09T00:36:27;19.20;99.90
27795;DHT22;15176;50.844;4.412;2022-09-09T00:38:57;19.40;99.90
27795;DHT22;15176;50.844;4.412;2022-09-09T00:55:28;18.00;99.90
27795;DHT22;15176;50.844;4.412;2022-09-09T00:57:49;18.40;99.90
27795;DHT22;15176;50.844;4.412;2022-09-09T01:00:29;18.10;99.90
27795;DHT22;15176;50.844;4.412;2022-09-09T01:03:12;18.40;99.90
27795;DHT22;15176;50.844;4.412;2022-09-09T01:11:13;18.60;99.90
27795;DHT22;15176;50.844;4.412;2022-09-09T01:13:42;18.20;99.90
27795;DHT22;15176;50.844;4.412;2022-09-09T01:16:10;18.20;99.90
27795;DHT22;15176;50.844;4.412;2022-09-09T01:18:46;18.10;99.90
27795;DHT22;15176;50.844;4.412;2022-09-09T01:24:15;18.50;99.90
27795;DHT22;15176;50.844;4.412;2022-09-09T01:26:46;18.40;99.90
27795;DHT22;15176;50.844;4.412;2022-09-09T01:29:17;18.50;99.90
27795;DHT22;15176;50.844;4.412;2022-09-09T01:34:21;18.80;99.90
27795;DHT22;15176;50.844;4.412;2022-09-09T01:39:18;18.20;99.90
27795;DHT22;15176;50.844;4.412;2022-09-09T01:41:44;18.00;99.90
27795;DHT22;15176;50.844;4.412;2022-09-09T01:44:11;17.90;99.90
27795;DHT22;15176;50.844;4.412;2022-09-09T01:46:36;17.80;99.90
27795;DHT22;15176;50.844;4.412;2022-09-09T01:49:04;17.90;99.90
27795;DHT22;15176;50.844;4.412;2022-09-09T01:51:30;17.90;99.90
27795;DHT22;15176;50.844;4.412;2022-09-09T01:53:56;18.10;99.90
27795;DHT22;15176;50.844;4.412;2022-09-09T01:56:25;18.00;99.90
27795;DHT22;15176;50.844;4.412;2022-09-09T01:59:04;17.80;99.90
27795;DHT22;15176;50.844;4.412;2022-09-09T02:07:08;17.90;99.90
27795;DHT22;15176;50.844;4.412;2022-09-09T02:09:36;17.80;99.90
27795;DHT22;15176;50.844;4.412;2022-09-09T02:12:09;17.80;99.90
27795;DHT22;15176;50.844;4.412;2022-09-09T02:14:41;17.80;99.90
27795;DHT22;15176;50.844;4.412;2022-09-09T02:17:10;18.10;99.90
27795;DHT22;15176;50.844;4.412;2022-09-09T02:19:51;18.30;99.90
27795;DHT22;15176;50.844;4.412;2022-09-09T02:22:22;17.80;99.90
27795;DHT22;15176;50.844;4.412;2022-09-09T02:24:49;18.00;99.90
27795;DHT22;15176;50.844;4.412;2022-09-09T02:27:17;18.30;99.90
27795;DHT22;15176;50.844;4.412;2022-09-09T02:29:44;18.10;99.90
27795;DHT22;15176;50.844;4.412;2022-09-09T02:32:16;18.00;99.90
27795;DHT22;15176;50.844;4.412;2022-09-09T02:34:46;18.10;99.90
27795;DHT22;15176;50.844;4.412;2022-09-09T02:37:15;18.10;99.90
27795;DHT22;15176;50.844;4.412;2022-09-09T02:39:42;18.10;99.90
27795;DHT22;15176;50.844;4.412;2022-09-09T02:42:08;18.20;99.90
27795;DHT22;15176;50.844;4.412;2022-09-09T02:44:35;18.30;99.90
27795;DHT22;15176;50.844;4.412;2022-09-09T02:52:18;18.10;99.90
27795;DHT22;15176;50.844;4.412;2022-09-09T02:54:45;17.90;99.90
27795;DHT22;15176;50.844;4.412;2022-09-09T02:57:25;17.70;99.90
27795;DHT22;15176;50.844;4.412;2022-09-09T02:59:51;17.70;99.90
27795;DHT22;15176;50.844;4.412;2022-09-09T03:02:20;17.50;99.90
27795;DHT22;15176;50.844;4.412;2022-09-09T03:04:46;17.30;99.90
27795;DHT22;15176;50.844;4.412;2022-09-09T03:07:16;17.40;99.90
27795;DHT22;15176;50.844;4.412;2022-09-09T03:09:42;17.80;99.90
27795;DHT22;15176;50.844;4.412;2022-09-09T03:12:08;17.50;99.90
27795;DHT22;15176;50.844;4.412;2022-09-09T03:14:34;17.80;99.90
27795;DHT22;15176;50.844;4.412;2022-09-09T03:16:59;17.60;99.90
27795;DHT22;15176;50.844;4.412;2022-09-09T03:19:26;17.90;99.90
27795;DHT22;15176;50.844;4.412;2022-09-09T03:21:53;18.10;99.90
27795;DHT22;15176;50.844;4.412;2022-09-09T03:24:19;18.20;99.90
27795;DHT22;15176;50.844;4.412;2022-09-09T03:26:45;17.90;99.90
27795;DHT22;15176;50.844;4.412;2022-09-09T03:29:11;17.80;99.90
27795;DHT22;15176;50.844;4.412;2022-09-09T03:31:40;17.60;99.90
27795;DHT22;15176;50.844;4.412;2022-09-09T03:34:06;17.70;99.90
27795;DHT22;15176;50.844;4.412;2022-09-09T03:36:32;17.40;99.90
27795;DHT22;15176;50.844;4.412;2022-09-09T03:38:58;17.20;99.90
27795;DHT22;15176;50.844;4.412;2022-09-09T03:41:24;17.50;99.90
27795;DHT22;15176;50.844;4.412;2022-09-09T03:43:53;17.80;99.90
27795;DHT22;15176;50.844;4.412;2022-09-09T03:46:20;17.70;99.90
27795;DHT22;15176;50.844;4.412;2022-09-09T03:48:46;17.40;99.90
27795;DHT22;15176;50.844;4.412;2022-09-09T03:51:12;17.60;99.90
27795;DHT22;15176;50.844;4.412;2022-09-09T03:53:38;17.50;99.90
27795;DHT22;15176;50.844;4.412;2022-09-09T03:56:05;17.40;99.90
27795;DHT22;15176;50.844;4.412;2022-09-09T03:58:33;17.60;99.90
27795;DHT22;15176;50.844;4.412;2022-09-09T04:01:09;17.40;99.90
27795;DHT22;15176;50.844;4.412;2022-09-09T04:03:35;17.30;99.90
27795;DHT22;15176;50.844;4.412;2022-09-09T04:06:02;17.00;99.90
27795;DHT22;15176;50.844;4.412;2022-09-09T04:08:29;17.00;99.90
27795;DHT22;15176;50.844;4.412;2022-09-09T04:10:56;17.00;99.90
27795;DHT22;15176;50.844;4.412;2022-09-09T04:13:23;17.30;99.90
27795;DHT22;15176;50.844;4.412;2022-09-09T04:15:55;17.10;99.90
27795;DHT22;15176;50.844;4.412;2022-09-09T04:18:22;17.50;99.90
27795;DHT22;15176;50.844;4.412;2022-09-09T04:20:49;17.50;99.90
27795;DHT22;15176;50.844;4.412;2022-09-09T04:23:16;17.50;99.90
27795;DHT22;15176;50.844;4.412;2022-09-09T04:26:02;17.70;99.90
27795;DHT22;15176;50.844;4.412;2022-09-09T04:28:30;17.60;99.90
27795;DHT22;15176;50.844;4.412;2022-09-09T04:30:56;17.50;99.90
27795;DHT22;15176;50.844;4.412;2022-09-09T04:33:25;17.50;99.90
27795;DHT22;15176;50.844;4.412;2022-09-09T04:35:53;17.50;99.90
27795;DHT22;15176;50.844;4.412;2022-09-09T04:38:19;17.40;99.90
27795;DHT22;15176;50.844;4.412;2022-09-09T04:40:50;17.70;99.90
27795;DHT22;15176;50.844;4.412;2022-09-09T04:43:17;17.50;99.90
27795;DHT22;15176;50.844;4.412;2022-09-09T04:45:47;17.50;99.90
27795;DHT22;15176;50.844;4.412;2022-09-09T04:48:14;17.40;99.90
27795;DHT22;15176;50.844;4.412;2022-09-09T04:50:39;17.30;99.90
27795;DHT22;15176;50.844;4.412;2022-09-09T04:53:06;17.30;99.90
27795;DHT22;15176;50.844;4.412;2022-09-09T04:55:34;17.40;99.90
27795;DHT22;15176;50.844;4.412;2022-09-09T04:58:07;17.40;99.90
27795;DHT22;15176;50.844;4.412;2022-09-09T05:00:34;17.50;99.90
27795;DHT22;15176;50.844;4.412;2022-09-09T05:03:04;17.40;99.90
27795;DHT22;15176;50.844;4.412;2022-09-09T05:05:33;17.30;99.90
27795;DHT22;15176;50.844;4.412;2022-09-09T05:08:06;17.00;99.90
27795;DHT22;15176;50.844;4.412;2022-09-09T05:10:34;17.00;99.90
27795;DHT22;15176;50.844;4.412;2022-09-09T05:13:01;17.10;99.90
27795;DHT22;15176;50.844;4.412;2022-09-09T05:15:27;17.10;99.90
27795;DHT22;15176;50.844;4.412;2022-09-09T05:17:57;17.10;99.90
27795;DHT22;15176;50.844;4.412;2022-09-09T05:20:23;17.20;99.90
27795;DHT22;15176;50.844;4.412;2022-09-09T05:22:53;17.30;99.90
27795;DHT22;15176;50.844;4.412;2022-09-09T05:25:19;17.40;99.90
27795;DHT22;15176;50.844;4.412;2022-09-09T05:27:45;17.40;99.90
27795;DHT22;15176;50.844;4.412;2022-09-09T05:30:10;17.20;99.90
27795;DHT22;15176;50.844;4.412;2022-09-09T05:32:36;17.70;99.90
27795;DHT22;15176;50.844;4.412;2022-09-09T05:35:02;17.70;99.90
27795;DHT22;15176;50.844;4.412;2022-09-09T05:37:28;17.50;99.90
27795;DHT22;15176;50.844;4.412;2022-09-09T05:39:55;17.60;99.90
27795;DHT22;15176;50.844;4.412;2022-09-09T05:42:21;17.70;99.90
27795;DHT22;15176;50.844;4.412;2022-09-09T05:44:46;17.30;99.90
27795;DHT22;15176;50.844;4.412;2022-09-09T05:47:12;17.30;99.90
27795;DHT22;15176;50.844;4.412;2022-09-09T05:49:37;17.10;99.90
27795;DHT22;15176;50.844;4.412;2022-09-09T05:52:03;17.50;99.90
27795;DHT22;15176;50.844;4.412;2022-09-09T05:54:29;17.60;99.90
27795;DHT22;15176;50.844;4.412;2022-09-09T05:56:55;17.30;99.90
27795;DHT22;15176;50.844;4.412;2022-09-09T05:59:20;17.50;99.90
27795;DHT22;15176;50.844;4.412;2022-09-09T06:01:48;17.50;99.90
27795;DHT22;15176;50.844;4.412;2022-09-09T06:04:14;17.70;99.90
27795;DHT22;15176;50.844;4.412;2022-09-09T06:06:40;17.50;99.90
27795;DHT22;15176;50.844;4.412;2022-09-09T06:09:08;17.40;99.90
27795;DHT22;15176;50.844;4.412;2022-09-09T06:11:39;17.30;99.90
27795;DHT22;15176;50.844;4.412;2022-09-09T06:14:05;17.60;99.90
27795;DHT22;15176;50.844;4.412;2022-09-09T06:16:31;17.70;99.90
27795;DHT22;15176;50.844;4.412;2022-09-09T06:19:01;17.70;99.90
27795;DHT22;15176;50.844;4.412;2022-09-09T06:21:30;17.90;99.90
27795;DHT22;15176;50.844;4.412;2022-09-09T06:23:57;18.20;99.90
27795;DHT22;15176;50.844;4.412;2022-09-09T06:26:29;18.00;99.90
27795;DHT22;15176;50.844;4.412;2022-09-09T06:28:56;17.60;99.90
27795;DHT22;15176;50.844;4.412;2022-09-09T06:31:25;17.90;99.90
27795;DHT22;15176;50.844;4.412;2022-09-09T06:33:52;17.80;99.90
27795;DHT22;15176;50.844;4.412;2022-09-09T06:38:48;17.80;99.90
27795;DHT22;15176;50.844;4.412;2022-09-09T06:41:17;17.80;99.90
27795;DHT22;15176;50.844;4.412;2022-09-09T06:43:44;17.60;99.90
27795;DHT22;15176;50.844;4.412;2022-09-09T06:46:14;17.60;99.90
27795;DHT22;15176;50.844;4.412;2022-09-09T06:48:43;17.80;99.90
27795;DHT22;15176;50.844;4.412;2022-09-09T06:51:10;18.00;99.90
27795;DHT22;15176;50.844;4.412;2022-09-09T06:53:37;18.20;99.90
27795;DHT22;15176;50.844;4.412;2022-09-09T06:56:17;18.10;99.90
27795;DHT22;15176;50.844;4.412;2022-09-09T06:58:43;17.80;99.90
27795;DHT22;15176;50.844;4.412;2022-09-09T07:01:15;17.80;99.90
27795;DHT22;15176;50.844;4.412;2022-09-09T07:03:41;18.20;99.90
27795;DHT22;15176;50.844;4.412;2022-09-09T07:06:09;18.40;99.90
27795;DHT22;15176;50.844;4.412;2022-09-09T07:08:39;18.40;99.90
27795;DHT22;15176;50.844;4.412;2022-09-09T07:11:06;17.90;99.90
27795;DHT22;15176;50.844;4.412;2022-09-09T07:13:33;18.00;99.90
27795;DHT22;15176;50.844;4.412;2022-09-09T07:16:07;18.10;99.90
27795;DHT22;15176;50.844;4.412;2022-09-09T07:18:33;18.00;99.90
27795;DHT22;15176;50.844;4.412;2022-09-09T07:21:00;17.80;99.90
27795;DHT22;15176;50.844;4.412;2022-09-09T07:23:27;17.70;99.90
27795;DHT22;15176;50.844;4.412;2022-09-09T07:25:53;17.70;99.90
27795;DHT22;15176;50.844;4.412;2022-09-09T07:28:19;17.70;99.90
27795;DHT22;15176;50.844;4.412;2022-09-09T07:30:57;17.50;99.90
27795;DHT22;15176;50.844;4.412;2022-09-09T07:33:23;17.50;99.90
27795;DHT22;15176;50.844;4.412;2022-09-09T07:35:50;17.80;99.90
27795;DHT22;15176;50.844;4.412;2022-09-09T07:38:16;17.90;99.90
27795;DHT22;15176;50.844;4.412;2022-09-09T07:40:42;18.10;99.90
27795;DHT22;15176;50.844;4.412;2022-09-09T07:43:07;18.10;99.90
27795;DHT22;15176;50.844;4.412;2022-09-09T07:45:34;18.40;99.90
27795;DHT22;15176;50.844;4.412;2022-09-09T07:48:01;18.40;99.90
27795;DHT22;15176;50.844;4.412;2022-09-09T07:50:27;17.90;99.90
27795;DHT22;15176;50.844;4.412;2022-09-09T07:52:53;17.50;99.90
27795;DHT22;15176;50.844;4.412;2022-09-09T07:55:22;17.30;99.90
27795;DHT22;15176;50.844;4.412;2022-09-09T07:57:52;17.10;99.90
27795;DHT22;15176;50.844;4.412;2022-09-09T08:00:18;17.30;99.90
27795;DHT22;15176;50.844;4.412;2022-09-09T08:02:45;17.30;99.90
27795;DHT22;15176;50.844;4.412;2022-09-09T08:05:12;17.40;99.90
27795;DHT22;15176;50.844;4.412;2022-09-09T08:07:38;17.90;99.90
27795;DHT22;15176;50.844;4.412;2022-09-09T08:10:04;18.00;99.90
27795;DHT22;15176;50.844;4.412;2022-09-09T08:12:30;17.80;99.90
27795;DHT22;15176;50.844;4.412;2022-09-09T08:14:55;18.10;99.90
27795;DHT22;15176;50.844;4.412;2022-09-09T08:17:21;18.40;99.90
27795;DHT22;15176;50.844;4.412;2022-09-09T08:19:46;18.50;99.90
27795;DHT22;15176;50.844;4.412;2022-09-09T08:22:12;18.50;99.90
27795;DHT22;15176;50.844;4.412;2022-09-09T08:24:38;18.20;99.90
27795;DHT22;15176;50.844;4.412;2022-09-09T08:27:04;18.20;99.90
27795;DHT22;15176;50.844;4.412;2022-09-09T08:29:30;18.50;99.90
27795;DHT22;15176;50.844;4.412;2022-09-09T08:31:57;18.50;99.90
27795;DHT22;15176;50.844;4.412;2022-09-09T08:34:24;18.70;99.90
27795;DHT22;15176;50.844;4.412;2022-09-09T08:36:52;18.60;99.90
27795;DHT22;15176;50.844;4.412;2022-09-09T08:39:19;18.50;99.90
27795;DHT22;15176;50.844;4.412;2022-09-09T08:49:43;18.50;99.90
27795;DHT22;15176;50.844;4.412;2022-09-09T08:52:27;18.60;99.90
27795;DHT22;15176;50.844;4.412;2022-09-09T08:54:58;18.20;99.90
27795;DHT22;15176;50.844;4.412;2022-09-09T08:57:28;18.20;99.90
27795;DHT22;15176;50.844;4.412;2022-09-09T08:59:56;17.90;99.90
27795;DHT22;15176;50.844;4.412;2022-09-09T09:10:48;18.40;99.90
27795;DHT22;15176;50.844;4.412;2022-09-09T09:15:57;18.30;99.90
27795;DHT22;15176;50.844;4.412;2022-09-09T09:18:24;18.30;99.90
27795;DHT22;15176;50.844;4.412;2022-09-09T09:23:23;18.00;99.90
27795;DHT22;15176;50.844;4.412;2022-09-09T09:25:48;18.00;99.90
27795;DHT22;15176;50.844;4.412;2022-09-09T09:31:01;18.50;99.90
27795;DHT22;15176;50.844;4.412;2022-09-09T09:36:10;17.80;99.90
27795;DHT22;15176;50.844;4.412;2022-09-09T09:38:58;17.90;99.90
27795;DHT22;15176;50.844;4.412;2022-09-09T09:44:03;17.80;99.90
27795;DHT22;15176;50.844;4.412;2022-09-09T09:46:30;18.10;99.90
27795;DHT22;15176;50.844;4.412;2022-09-09T09:49:03;18.10;99.90
27795;DHT22;15176;50.844;4.412;2022-09-09T09:51:30;18.00;99.90
27795;DHT22;15176;50.844;4.412;2022-09-09T09:56:47;18.10;99.90
27795;DHT22;15176;50.844;4.412;2022-09-09T10:01:53;17.90;99.90
27795;DHT22;15176;50.844;4.412;2022-09-09T10:04:21;18.00;99.90
27795;DHT22;15176;50.844;4.412;2022-09-09T10:06:49;18.10;99.90
27795;DHT22;15176;50.844;4.412;2022-09-09T10:09:28;18.10;99.90
27795;DHT22;15176;50.844;4.412;2022-09-09T10:20:15;18.20;99.90
27795;DHT22;15176;50.844;4.412;2022-09-09T10:22:49;18.10;99.90
27795;DHT22;15176;50.844;4.412;2022-09-09T10:30:22;18.30;99.90
27795;DHT22;15176;50.844;4.412;2022-09-09T10:35:47;18.00;99.90
27795;DHT22;15176;50.844;4.412;2022-09-09T10:38:30;18.30;99.90
27795;DHT22;15176;50.844;4.412;2022-09-09T10:41:21;18.60;99.90
27795;DHT22;15176;50.844;4.412;2022-09-09T10:59:52;18.90;99.90
27795;DHT22;15176;50.844;4.412;2022-09-09T11:02:27;19.10;99.90
27795;DHT22;15176;50.844;4.412;2022-09-09T11:05:05;19.00;99.90
27795;DHT22;15176;50.844;4.412;2022-09-09T11:07:38;19.10;99.90
27795;DHT22;15176;50.844;4.412;2022-09-09T11:10:15;19.40;99.90
27795;DHT22;15176;50.844;4.412;2022-09-09T11:12:46;19.50;99.90
27795;DHT22;15176;50.844;4.412;2022-09-09T11:15:20;19.50;99.90
27795;DHT22;15176;50.844;4.412;2022-09-09T11:17:53;19.50;99.90
27795;DHT22;15176;50.844;4.412;2022-09-09T11:20:22;19.60;99.90
27795;DHT22;15176;50.844;4.412;2022-09-09T11:23:03;19.70;99.90
27795;DHT22;15176;50.844;4.412;2022-09-09T11:25:38;19.90;99.90
27795;DHT22;15176;50.844;4.412;2022-09-09T11:38:46;19.70;99.90
27795;DHT22;15176;50.844;4.412;2022-09-09T11:41:16;19.60;99.90
27795;DHT22;15176;50.844;4.412;2022-09-09T11:43:53;19.90;99.90
27795;DHT22;15176;50.844;4.412;2022-09-09T11:46:22;19.90;99.90
27795;DHT22;15176;50.844;4.412;2022-09-09T11:49:00;19.80;99.90
27795;DHT22;15176;50.844;4.412;2022-09-09T11:51:31;19.80;99.90
27795;DHT22;15176;50.844;4.412;2022-09-09T11:56:48;19.80;99.90
27795;DHT22;15176;50.844;4.412;2022-09-09T11:59:27;19.80;99.90
27795;DHT22;15176;50.844;4.412;2022-09-09T12:02:02;19.60;99.90
27795;DHT22;15176;50.844;4.412;2022-09-09T12:04:31;19.80;99.90
27795;DHT22;15176;50.844;4.412;2022-09-09T12:09:48;19.90;99.90
27795;DHT22;15176;50.844;4.412;2022-09-09T12:12:28;19.80;99.90
27795;DHT22;15176;50.844;4.412;2022-09-09T12:17:48;19.70;99.90
27795;DHT22;15176;50.844;4.412;2022-09-09T12:28:47;20.00;99.90
27795;DHT22;15176;50.844;4.412;2022-09-09T12:31:30;19.90;99.90
27795;DHT22;15176;50.844;4.412;2022-09-09T12:34:38;19.90;99.90
27795;DHT22;15176;50.844;4.412;2022-09-09T12:37:12;19.70;99.90
27795;DHT22;15176;50.844;4.412;2022-09-09T12:42:22;19.90;99.90
27795;DHT22;15176;50.844;4.412;2022-09-09T12:47:28;19.90;99.90
27795;DHT22;15176;50.844;4.412;2022-09-09T12:49:55;20.00;99.90
27795;DHT22;15176;50.844;4.412;2022-09-09T12:52:29;20.20;99.90
27795;DHT22;15176;50.844;4.412;2022-09-09T12:54:57;20.40;99.90
27795;DHT22;15176;50.844;4.412;2022-09-09T12:57:24;20.50;99.90
27795;DHT22;15176;50.844;4.412;2022-09-09T12:59:51;20.50;99.90
27795;DHT22;15176;50.844;4.412;2022-09-09T13:02:23;20.40;99.90
27795;DHT22;15176;50.844;4.412;2022-09-09T13:04:50;20.40;99.90
27795;DHT22;15176;50.844;4.412;2022-09-09T13:07:18;20.50;99.90
27795;DHT22;15176;50.844;4.412;2022-09-09T13:09:45;20.50;99.90
27795;DHT22;15176;50.844;4.412;2022-09-09T13:14:54;20.60;99.90
27795;DHT22;15176;50.844;4.412;2022-09-09T13:17:24;20.70;99.90
27795;DHT22;15176;50.844;4.412;2022-09-09T13:19:51;20.80;99.90
27795;DHT22;15176;50.844;4.412;2022-09-09T13:27:38;20.70;99.90
27795;DHT22;15176;50.844;4.412;2022-09-09T13:33:17;21.20;99.90
27795;DHT22;15176;50.844;4.412;2022-09-09T13:38:21;21.20;99.90
27795;DHT22;15176;50.844;4.412;2022-09-09T13:40:59;21.30;99.90
27795;DHT22;15176;50.844;4.412;2022-09-09T13:43:28;21.40;99.90
27795;DHT22;15176;50.844;4.412;2022-09-09T13:45:57;21.40;99.90
27795;DHT22;15176;50.844;4.412;2022-09-09T13:48:23;21.30;99.90
27795;DHT22;15176;50.844;4.412;2022-09-09T13:51:01;21.50;99.90
27795;DHT22;15176;50.844;4.412;2022-09-09T13:53:28;21.60;99.90
27795;DHT22;15176;50.844;4.412;2022-09-09T13:55:54;21.50;99.90
27795;DHT22;15176;50.844;4.412;2022-09-09T13:58:20;21.60;99.90
27795;DHT22;15176;50.844;4.412;2022-09-09T14:00:46;21.60;99.90
27795;DHT22;15176;50.844;4.412;2022-09-09T14:03:12;21.60;99.90
27795;DHT22;15176;50.844;4.412;2022-09-09T14:05:39;21.60;99.90
27795;DHT22;15176;50.844;4.412;2022-09-09T14:08:06;21.60;99.90
27795;DHT22;15176;50.844;4.412;2022-09-09T14:10:32;21.30;99.90
27795;DHT22;15176;50.844;4.412;2022-09-09T14:12:57;21.40;99.90
27795;DHT22;15176;50.844;4.412;2022-09-09T14:15:23;21.60;99.90
27795;DHT22;15176;50.844;4.412;2022-09-09T14:17:49;21.40;99.90
27795;DHT22;15176;50.844;4.412;2022-09-09T14:20:15;21.20;99.90
27795;DHT22;15176;50.844;4.412;2022-09-09T14:22:42;21.20;99.90
27795;DHT22;15176;50.844;4.412;2022-09-09T14:25:09;20.90;99.90
27795;DHT22;15176;50.844;4.412;2022-09-09T14:27:35;20.90;99.90
27795;DHT22;15176;50.844;4.412;2022-09-09T14:30:00;20.80;99.90
27795;DHT22;15176;50.844;4.412;2022-09-09T14:32:27;20.90;99.90
27795;DHT22;15176;50.844;4.412;2022-09-09T14:34:54;21.00;99.90
27795;DHT22;15176;50.844;4.412;2022-09-09T14:37:20;21.10;99.90
27795;DHT22;15176;50.844;4.412;2022-09-09T14:39:46;21.10;99.90
27795;DHT22;15176;50.844;4.412;2022-09-09T14:42:13;21.40;99.90
27795;DHT22;15176;50.844;4.412;2022-09-09T14:44:39;21.70;99.90
27795;DHT22;15176;50.844;4.412;2022-09-09T14:47:06;21.60;99.90
27795;DHT22;15176;50.844;4.412;2022-09-09T14:49:36;21.50;99.90
27795;DHT22;15176;50.844;4.412;2022-09-09T14:52:03;21.40;99.90
27795;DHT22;15176;50.844;4.412;2022-09-09T14:54:28;21.60;99.90
27795;DHT22;15176;50.844;4.412;2022-09-09T14:56:54;21.80;99.90
27795;DHT22;15176;50.844;4.412;2022-09-09T14:59:20;21.90;99.90
27795;DHT22;15176;50.844;4.412;2022-09-09T15:01:45;21.80;99.90
27795;DHT22;15176;50.844;4.412;2022-09-09T15:04:12;21.40;99.90
27795;DHT22;15176;50.844;4.412;2022-09-09T15:06:40;21.50;99.90
27795;DHT22;15176;50.844;4.412;2022-09-09T15:09:08;21.70;99.90
27795;DHT22;15176;50.844;4.412;2022-09-09T15:11:36;21.70;99.90
27795;DHT22;15176;50.844;4.412;2022-09-09T15:14:03;21.60;99.90
27795;DHT22;15176;50.844;4.412;2022-09-09T15:16:29;21.70;99.90
27795;DHT22;15176;50.844;4.412;2022-09-09T15:18:57;21.90;99.90
27795;DHT22;15176;50.844;4.412;2022-09-09T15:21:24;21.90;99.90
27795;DHT22;15176;50.844;4.412;2022-09-09T15:23:50;21.40;99.90
27795;DHT22;15176;50.844;4.412;2022-09-09T15:26:17;21.60;99.90
27795;DHT22;15176;50.844;4.412;2022-09-09T15:28:44;21.50;99.90
27795;DHT22;15176;50.844;4.412;2022-09-09T15:31:12;21.50;99.90
27795;DHT22;15176;50.844;4.412;2022-09-09T15:33:50;21.50;99.90
27795;DHT22;15176;50.844;4.412;2022-09-09T15:36:24;21.30;99.90
27795;DHT22;15176;50.844;4.412;2022-09-09T15:38:50;21.10;99.90
27795;DHT22;15176;50.844;4.412;2022-09-09T15:41:16;20.90;99.90
27795;DHT22;15176;50.844;4.412;2022-09-09T15:43:44;21.10;99.90
27795;DHT22;15176;50.844;4.412;2022-09-09T15:48:42;21.00;99.90
27795;DHT22;15176;50.844;4.412;2022-09-09T15:51:09;21.10;99.90
27795;DHT22;15176;50.844;4.412;2022-09-09T15:53:36;21.20;99.90
27795;DHT22;15176;50.844;4.412;2022-09-09T15:56:02;21.50;99.90
27795;DHT22;15176;50.844;4.412;2022-09-09T15:58:30;21.50;99.90
27795;DHT22;15176;50.844;4.412;2022-09-09T16:01:05;21.30;99.90
27795;DHT22;15176;50.844;4.412;2022-09-09T16:03:36;21.20;99.90
27795;DHT22;15176;50.844;4.412;2022-09-09T16:06:03;21.00;99.90
27795;DHT22;15176;50.844;4.412;2022-09-09T16:08:38;21.10;99.90
27795;DHT22;15176;50.844;4.412;2022-09-09T16:11:10;21.30;99.90
27795;DHT22;15176;50.844;4.412;2022-09-09T16:13:37;21.30;99.90
27795;DHT22;15176;50.844;4.412;2022-09-09T16:16:03;21.20;99.90
27795;DHT22;15176;50.844;4.412;2022-09-09T16:21:01;20.90;99.90
27795;DHT22;15176;50.844;4.412;2022-09-09T16:23:27;20.90;99.90
27795;DHT22;15176;50.844;4.412;2022-09-09T16:25:54;20.70;99.90
27795;DHT22;15176;50.844;4.412;2022-09-09T16:28:20;21.10;99.90
27795;DHT22;15176;50.844;4.412;2022-09-09T16:30:45;20.90;99.90
27795;DHT22;15176;50.844;4.412;2022-09-09T16:33:11;20.80;99.90
27795;DHT22;15176;50.844;4.412;2022-09-09T16:35:37;20.70;99.90
27795;DHT22;15176;50.844;4.412;2022-09-09T16:38:04;20.50;99.90
27795;DHT22;15176;50.844;4.412;2022-09-09T16:40:29;20.20;99.90
27795;DHT22;15176;50.844;4.412;2022-09-09T16:42:55;19.90;99.90
27795;DHT22;15176;50.844;4.412;2022-09-09T16:45:21;19.90;99.90
27795;DHT22;15176;50.844;4.412;2022-09-09T16:47:47;19.90;99.90
27795;DHT22;15176;50.844;4.412;2022-09-09T16:50:14;19.80;99.90
27795;DHT22;15176;50.844;4.412;2022-09-09T16:52:39;19.90;99.90
27795;DHT22;15176;50.844;4.412;2022-09-09T16:55:05;20.20;99.90
27795;DHT22;15176;50.844;4.412;2022-09-09T16:57:31;20.50;99.90
27795;DHT22;15176;50.844;4.412;2022-09-09T16:59:57;20.30;99.90
27795;DHT22;15176;50.844;4.412;2022-09-09T17:02:24;20.40;99.90
27795;DHT22;15176;50.844;4.412;2022-09-09T17:04:50;20.50;99.90
27795;DHT22;15176;50.844;4.412;2022-09-09T17:07:16;20.20;99.90
27795;DHT22;15176;50.844;4.412;2022-09-09T17:09:43;20.20;99.90
27795;DHT22;15176;50.844;4.412;2022-09-09T17:12:10;20.40;99.90
27795;DHT22;15176;50.844;4.412;2022-09-09T17:14:37;20.40;99.90
27795;DHT22;15176;50.844;4.412;2022-09-09T17:17:03;20.20;99.90
27795;DHT22;15176;50.844;4.412;2022-09-09T17:19:30;20.10;99.90
27795;DHT22;15176;50.844;4.412;2022-09-09T17:21:56;19.90;99.90
27795;DHT22;15176;50.844;4.412;2022-09-09T17:24:26;19.90;99.90
27795;DHT22;15176;50.844;4.412;2022-09-09T17:26:52;19.80;99.90
27795;DHT22;15176;50.844;4.412;2022-09-09T17:29:18;19.80;99.90
27795;DHT22;15176;50.844;4.412;2022-09-09T17:31:44;19.80;99.90
27795;DHT22;15176;50.844;4.412;2022-09-09T17:34:10;19.80;99.90
27795;DHT22;15176;50.844;4.412;2022-09-09T17:36:35;20.00;99.90
27795;DHT22;15176;50.844;4.412;2022-09-09T17:39:03;19.80;99.90
27795;DHT22;15176;50.844;4.412;2022-09-09T17:41:32;19.80;99.90
27795;DHT22;15176;50.844;4.412;2022-09-09T17:43:59;19.60;99.90
27795;DHT22;15176;50.844;4.412;2022-09-09T17:46:30;19.30;99.90
27795;DHT22;15176;50.844;4.412;2022-09-09T17:49:00;19.20;99.90
27795;DHT22;15176;50.844;4.412;2022-09-09T17:51:28;19.10;99.90
27795;DHT22;15176;50.844;4.412;2022-09-09T17:53:57;19.00;99.90
27795;DHT22;15176;50.844;4.412;2022-09-09T17:56:24;19.00;99.90
27795;DHT22;15176;50.844;4.412;2022-09-09T17:58:52;19.10;99.90
27795;DHT22;15176;50.844;4.412;2022-09-09T18:01:23;19.10;99.90
27795;DHT22;15176;50.844;4.412;2022-09-09T18:03:50;19.00;99.90
27795;DHT22;15176;50.844;4.412;2022-09-09T18:06:28;19.10;99.90
27795;DHT22;15176;50.844;4.412;2022-09-09T18:08:58;19.40;99.90
27795;DHT22;15176;50.844;4.412;2022-09-09T18:11:26;19.40;99.90
27795;DHT22;15176;50.844;4.412;2022-09-09T18:13:55;19.40;99.90
27795;DHT22;15176;50.844;4.412;2022-09-09T18:16:23;19.30;99.90
27795;DHT22;15176;50.844;4.412;2022-09-09T18:18:49;19.10;99.90
27795;DHT22;15176;50.844;4.412;2022-09-09T18:21:15;19.20;99.90
27795;DHT22;15176;50.844;4.412;2022-09-09T18:23:43;19.00;99.90
27795;DHT22;15176;50.844;4.412;2022-09-09T18:26:19;19.00;99.90
27795;DHT22;15176;50.844;4.412;2022-09-09T18:29:06;19.00;99.90
27795;DHT22;15176;50.844;4.412;2022-09-09T18:31:32;19.10;99.90
27795;DHT22;15176;50.844;4.412;2022-09-09T18:34:00;19.10;99.90
27795;DHT22;15176;50.844;4.412;2022-09-09T18:36:49;19.10;99.90
27795;DHT22;15176;50.844;4.412;2022-09-09T18:39:19;19.00;99.90
27795;DHT22;15176;50.844;4.412;2022-09-09T18:41:48;19.00;99.90